Billingsville, Indiana
Current Conditions -  °F | °C
As of 10:15 PM on Saturday 22 Nov 2014 (Local Time) from KI67 Reporting Station
Broken Clouds Broken Clouds  
Wind Chill: 10°   Ceiling: 6000
Heat Index: 10°   Visibility: 10mi
Dew Point:   Wind: 3mph
Humidity: 54%   Direction: 200°SSW
Pressure: 30.07"   Gusts: NA
Location:  39.6086°N, 84.9137°W
Report Text: KI67 230315Z AUTO 20003KT 10SM BKN060 BKN110 10/01 A3007 RMK AO1
Loading
Personal Weather Stations






























Interactive Weather Map New forecast layout! Learn more

10-Day Weather Forecast

Advertisements
Track Severe Weather on mobile